sensor_id;sensor_type;location;lat;lon;timestamp;P1;durP1;ratioP1;P2;durP2;ratioP2
27977;SDS011;15314;49.248;6.968;2024-01-15T00:00:24;55.58;;;32.65;;
27977;SDS011;15314;49.248;6.968;2024-01-15T00:01:43;56.08;;;32.53;;
27977;SDS011;15314;49.248;6.968;2024-01-15T00:03:03;52.22;;;31.15;;
27977;SDS011;15314;49.248;6.968;2024-01-15T00:04:22;54.78;;;32.80;;
27977;SDS011;15314;49.248;6.968;2024-01-15T00:05:41;57.58;;;31.00;;
27977;SDS011;15314;49.248;6.968;2024-01-15T00:07:01;58.45;;;32.88;;
27977;SDS011;15314;49.248;6.968;2024-01-15T00:08:20;57.03;;;32.90;;
27977;SDS011;15314;49.248;6.968;2024-01-15T00:09:39;55.40;;;32.65;;
27977;SDS011;15314;49.248;6.968;2024-01-15T00:10:58;57.33;;;33.30;;
27977;SDS011;15314;49.248;6.968;2024-01-15T00:12:17;54.13;;;31.60;;
27977;SDS011;15314;49.248;6.968;2024-01-15T00:13:36;56.13;;;31.70;;
27977;SDS011;15314;49.248;6.968;2024-01-15T00:14:53;54.53;;;33.63;;
27977;SDS011;15314;49.248;6.968;2024-01-15T00:16:12;57.63;;;31.88;;
27977;SDS011;15314;49.248;6.968;2024-01-15T00:17:31;53.13;;;31.17;;
27977;SDS011;15314;49.248;6.968;2024-01-15T00:18:47;57.50;;;33.67;;
27977;SDS011;15314;49.248;6.968;2024-01-15T00:20:07;56.05;;;33.03;;
27977;SDS011;15314;49.248;6.968;2024-01-15T00:21:26;55.80;;;32.60;;
27977;SDS011;15314;49.248;6.968;2024-01-15T00:22:46;53.55;;;32.60;;
27977;SDS011;15314;49.248;6.968;2024-01-15T00:24:05;61.75;;;34.83;;
27977;SDS011;15314;49.248;6.968;2024-01-15T00:25:24;57.58;;;33.90;;
27977;SDS011;15314;49.248;6.968;2024-01-15T00:26:43;61.17;;;33.90;;
27977;SDS011;15314;49.248;6.968;2024-01-15T00:28:03;57.58;;;32.63;;
27977;SDS011;15314;49.248;6.968;2024-01-15T00:29:22;57.28;;;32.90;;
27977;SDS011;15314;49.248;6.968;2024-01-15T00:30:42;51.50;;;31.77;;
27977;SDS011;15314;49.248;6.968;2024-01-15T00:31:58;54.28;;;32.13;;
27977;SDS011;15314;49.248;6.968;2024-01-15T00:33:17;64.90;;;32.65;;
27977;SDS011;15314;49.248;6.968;2024-01-15T00:34:36;56.97;;;32.10;;
27977;SDS011;15314;49.248;6.968;2024-01-15T00:35:55;55.45;;;31.00;;
27977;SDS011;15314;49.248;6.968;2024-01-15T00:37:14;57.58;;;33.17;;
27977;SDS011;15314;49.248;6.968;2024-01-15T00:38:33;58.35;;;33.08;;
27977;SDS011;15314;49.248;6.968;2024-01-15T00:39:53;55.47;;;31.20;;
27977;SDS011;15314;49.248;6.968;2024-01-15T00:41:12;56.42;;;32.05;;
27977;SDS011;15314;49.248;6.968;2024-01-15T00:42:31;59.35;;;32.45;;
27977;SDS011;15314;49.248;6.968;2024-01-15T00:43:51;57.88;;;32.78;;
27977;SDS011;15314;49.248;6.968;2024-01-15T00:45:10;56.00;;;32.22;;
27977;SDS011;15314;49.248;6.968;2024-01-15T00:46:29;65.93;;;34.28;;
27977;SDS011;15314;49.248;6.968;2024-01-15T00:47:49;56.17;;;32.83;;
27977;SDS011;15314;49.248;6.968;2024-01-15T00:49:08;54.08;;;31.38;;
27977;SDS011;15314;49.248;6.968;2024-01-15T00:50:28;62.47;;;33.95;;
27977;SDS011;15314;49.248;6.968;2024-01-15T00:51:47;58.17;;;33.45;;
27977;SDS011;15314;49.248;6.968;2024-01-15T00:53:07;62.67;;;35.17;;
27977;SDS011;15314;49.248;6.968;2024-01-15T00:54:26;62.60;;;35.80;;
27977;SDS011;15314;49.248;6.968;2024-01-15T00:55:45;67.30;;;35.65;;
27977;SDS011;15314;49.248;6.968;2024-01-15T00:57:04;58.25;;;31.50;;
27977;SDS011;15314;49.248;6.968;2024-01-15T00:58:23;61.60;;;33.38;;
27977;SDS011;15314;49.248;6.968;2024-01-15T00:59:42;58.33;;;32.78;;
27977;SDS011;15314;49.248;6.968;2024-01-15T01:01:01;60.65;;;34.17;;
27977;SDS011;15314;49.248;6.968;2024-01-15T01:02:21;62.25;;;33.85;;
27977;SDS011;15314;49.248;6.968;2024-01-15T01:03:40;55.55;;;32.10;;
27977;SDS011;15314;49.248;6.968;2024-01-15T01:04:59;59.92;;;34.78;;
27977;SDS011;15314;49.248;6.968;2024-01-15T01:06:15;65.47;;;34.58;;
27977;SDS011;15314;49.248;6.968;2024-01-15T01:07:34;59.20;;;34.22;;
27977;SDS011;15314;49.248;6.968;2024-01-15T01:08:53;56.65;;;31.48;;
27977;SDS011;15314;49.248;6.968;2024-01-15T01:10:13;53.55;;;32.05;;
27977;SDS011;15314;49.248;6.968;2024-01-15T01:11:32;51.25;;;30.95;;
27977;SDS011;15314;49.248;6.968;2024-01-15T01:12:51;59.03;;;32.92;;
27977;SDS011;15314;49.248;6.968;2024-01-15T01:14:10;56.63;;;32.20;;
27977;SDS011;15314;49.248;6.968;2024-01-15T01:15:29;54.03;;;31.52;;
27977;SDS011;15314;49.248;6.968;2024-01-15T01:16:48;57.13;;;34.00;;
27977;SDS011;15314;49.248;6.968;2024-01-15T01:18:07;55.72;;;33.55;;
27977;SDS011;15314;49.248;6.968;2024-01-15T01:19:26;55.47;;;31.55;;
27977;SDS011;15314;49.248;6.968;2024-01-15T01:20:45;53.90;;;31.83;;
27977;SDS011;15314;49.248;6.968;2024-01-15T01:22:04;55.72;;;32.13;;
27977;SDS011;15314;49.248;6.968;2024-01-15T01:23:24;54.05;;;31.45;;
27977;SDS011;15314;49.248;6.968;2024-01-15T01:24:43;57.45;;;32.47;;
27977;SDS011;15314;49.248;6.968;2024-01-15T01:26:02;60.13;;;32.75;;
27977;SDS011;15314;49.248;6.968;2024-01-15T01:27:21;51.13;;;30.25;;
27977;SDS011;15314;49.248;6.968;2024-01-15T01:28:40;54.33;;;32.17;;
27977;SDS011;15314;49.248;6.968;2024-01-15T01:30:00;53.15;;;31.95;;
27977;SDS011;15314;49.248;6.968;2024-01-15T01:31:19;52.90;;;30.50;;
27977;SDS011;15314;49.248;6.968;2024-01-15T01:32:38;53.15;;;31.83;;
27977;SDS011;15314;49.248;6.968;2024-01-15T01:33:58;55.78;;;31.75;;
27977;SDS011;15314;49.248;6.968;2024-01-15T01:35:17;55.15;;;31.50;;
27977;SDS011;15314;49.248;6.968;2024-01-15T01:36:36;56.78;;;32.85;;
27977;SDS011;15314;49.248;6.968;2024-01-15T01:37:55;51.50;;;30.80;;
27977;SDS011;15314;49.248;6.968;2024-01-15T01:39:11;54.35;;;32.72;;
27977;SDS011;15314;49.248;6.968;2024-01-15T01:40:30;48.97;;;30.55;;
27977;SDS011;15314;49.248;6.968;2024-01-15T01:41:49;53.72;;;29.67;;
27977;SDS011;15314;49.248;6.968;2024-01-15T01:43:05;50.97;;;30.52;;
27977;SDS011;15314;49.248;6.968;2024-01-15T01:44:24;51.30;;;31.13;;
27977;SDS011;15314;49.248;6.968;2024-01-15T01:45:40;48.90;;;30.25;;
27977;SDS011;15314;49.248;6.968;2024-01-15T01:46:59;50.85;;;31.33;;
27977;SDS011;15314;49.248;6.968;2024-01-15T01:48:16;51.05;;;30.90;;
27977;SDS011;15314;49.248;6.968;2024-01-15T01:49:35;47.42;;;30.88;;
27977;SDS011;15314;49.248;6.968;2024-01-15T01:50:59;48.88;;;29.55;;
27977;SDS011;15314;49.248;6.968;2024-01-15T01:52:21;54.33;;;33.25;;
27977;SDS011;15314;49.248;6.968;2024-01-15T01:53:40;52.30;;;32.95;;
27977;SDS011;15314;49.248;6.968;2024-01-15T01:55:00;51.08;;;30.95;;
27977;SDS011;15314;49.248;6.968;2024-01-15T01:56:21;50.38;;;31.55;;
27977;SDS011;15314;49.248;6.968;2024-01-15T01:57:41;48.97;;;31.98;;
27977;SDS011;15314;49.248;6.968;2024-01-15T01:59:01;47.78;;;30.48;;
27977;SDS011;15314;49.248;6.968;2024-01-15T02:00:21;45.35;;;29.90;;
27977;SDS011;15314;49.248;6.968;2024-01-15T02:01:41;50.97;;;31.35;;
27977;SDS011;15314;49.248;6.968;2024-01-15T02:03:01;56.47;;;32.20;;
27977;SDS011;15314;49.248;6.968;2024-01-15T02:04:23;52.30;;;29.42;;
27977;SDS011;15314;49.248;6.968;2024-01-15T02:07:03;52.92;;;31.90;;
27977;SDS011;15314;49.248;6.968;2024-01-15T02:08:20;46.45;;;29.45;;
27977;SDS011;15314;49.248;6.968;2024-01-15T02:09:41;46.47;;;30.52;;
27977;SDS011;15314;49.248;6.968;2024-01-15T02:11:00;47.13;;;29.70;;
27977;SDS011;15314;49.248;6.968;2024-01-15T02:12:19;44.80;;;30.60;;
27977;SDS011;15314;49.248;6.968;2024-01-15T02:13:39;51.53;;;30.45;;
27977;SDS011;15314;49.248;6.968;2024-01-15T02:14:58;46.85;;;29.52;;
27977;SDS011;15314;49.248;6.968;2024-01-15T02:16:18;48.92;;;30.63;;
27977;SDS011;15314;49.248;6.968;2024-01-15T02:17:56;48.53;;;30.90;;
27977;SDS011;15314;49.248;6.968;2024-01-15T02:19:17;49.22;;;30.77;;
27977;SDS011;15314;49.248;6.968;2024-01-15T02:20:37;46.90;;;29.27;;
27977;SDS011;15314;49.248;6.968;2024-01-15T02:21:56;51.67;;;30.70;;
27977;SDS011;15314;49.248;6.968;2024-01-15T02:23:15;46.15;;;29.77;;
27977;SDS011;15314;49.248;6.968;2024-01-15T02:24:35;51.70;;;32.28;;
27977;SDS011;15314;49.248;6.968;2024-01-15T02:25:51;50.92;;;30.33;;
27977;SDS011;15314;49.248;6.968;2024-01-15T02:27:11;48.97;;;30.27;;
27977;SDS011;15314;49.248;6.968;2024-01-15T02:28:30;46.83;;;28.98;;
27977;SDS011;15314;49.248;6.968;2024-01-15T02:29:51;49.13;;;29.90;;
27977;SDS011;15314;49.248;6.968;2024-01-15T02:31:08;49.08;;;30.25;;
27977;SDS011;15314;49.248;6.968;2024-01-15T02:32:24;44.60;;;28.35;;
27977;SDS011;15314;49.248;6.968;2024-01-15T02:33:44;49.33;;;30.45;;
27977;SDS011;15314;49.248;6.968;2024-01-15T02:35:04;46.58;;;28.95;;
27977;SDS011;15314;49.248;6.968;2024-01-15T02:36:23;48.97;;;30.55;;
27977;SDS011;15314;49.248;6.968;2024-01-15T02:37:42;45.08;;;28.63;;
27977;SDS011;15314;49.248;6.968;2024-01-15T02:39:01;46.72;;;30.27;;
27977;SDS011;15314;49.248;6.968;2024-01-15T02:40:21;53.10;;;30.02;;
27977;SDS011;15314;49.248;6.968;2024-01-15T02:41:39;47.60;;;30.65;;
27977;SDS011;15314;49.248;6.968;2024-01-15T02:42:55;51.45;;;30.02;;
27977;SDS011;15314;49.248;6.968;2024-01-15T02:44:15;46.03;;;28.80;;
27977;SDS011;15314;49.248;6.968;2024-01-15T02:45:34;46.40;;;28.65;;
27977;SDS011;15314;49.248;6.968;2024-01-15T02:46:53;49.45;;;29.92;;
27977;SDS011;15314;49.248;6.968;2024-01-15T02:48:12;48.30;;;30.15;;
27977;SDS011;15314;49.248;6.968;2024-01-15T02:49:31;48.45;;;29.60;;
27977;SDS011;15314;49.248;6.968;2024-01-15T02:50:51;49.05;;;31.05;;
27977;SDS011;15314;49.248;6.968;2024-01-15T02:52:10;48.20;;;28.55;;
27977;SDS011;15314;49.248;6.968;2024-01-15T02:53:29;52.78;;;30.95;;
27977;SDS011;15314;49.248;6.968;2024-01-15T02:54:48;46.35;;;28.27;;
27977;SDS011;15314;49.248;6.968;2024-01-15T02:56:04;49.63;;;31.30;;
27977;SDS011;15314;49.248;6.968;2024-01-15T02:57:20;49.33;;;31.00;;
27977;SDS011;15314;49.248;6.968;2024-01-15T02:58:39;48.00;;;28.63;;
27977;SDS011;15314;49.248;6.968;2024-01-15T02:59:58;48.17;;;30.45;;
27977;SDS011;15314;49.248;6.968;2024-01-15T03:01:18;43.80;;;28.40;;
27977;SDS011;15314;49.248;6.968;2024-01-15T03:02:39;50.95;;;29.50;;
27977;SDS011;15314;49.248;6.968;2024-01-15T03:03:59;48.92;;;29.20;;
27977;SDS011;15314;49.248;6.968;2024-01-15T03:05:14;48.53;;;29.50;;
27977;SDS011;15314;49.248;6.968;2024-01-15T03:06:31;47.58;;;30.45;;
27977;SDS011;15314;49.248;6.968;2024-01-15T03:07:50;44.83;;;28.08;;
27977;SDS011;15314;49.248;6.968;2024-01-15T03:09:09;42.20;;;27.83;;
27977;SDS011;15314;49.248;6.968;2024-01-15T03:10:28;44.75;;;27.38;;
27977;SDS011;15314;49.248;6.968;2024-01-15T03:11:47;45.53;;;28.20;;
27977;SDS011;15314;49.248;6.968;2024-01-15T03:13:07;46.47;;;29.08;;
27977;SDS011;15314;49.248;6.968;2024-01-15T03:14:26;45.38;;;29.30;;
27977;SDS011;15314;49.248;6.968;2024-01-15T03:15:42;47.85;;;28.92;;
27977;SDS011;15314;49.248;6.968;2024-01-15T03:17:02;47.45;;;28.92;;
27977;SDS011;15314;49.248;6.968;2024-01-15T03:18:20;45.53;;;28.75;;
27977;SDS011;15314;49.248;6.968;2024-01-15T03:19:39;48.30;;;31.55;;
27977;SDS011;15314;49.248;6.968;2024-01-15T03:20:59;50.30;;;30.90;;
27977;SDS011;15314;49.248;6.968;2024-01-15T03:22:19;47.70;;;30.63;;
27977;SDS011;15314;49.248;6.968;2024-01-15T03:23:38;47.92;;;28.27;;
27977;SDS011;15314;49.248;6.968;2024-01-15T03:24:54;42.72;;;27.45;;
27977;SDS011;15314;49.248;6.968;2024-01-15T03:26:13;47.60;;;30.58;;
27977;SDS011;15314;49.248;6.968;2024-01-15T03:27:32;47.92;;;30.38;;
27977;SDS011;15314;49.248;6.968;2024-01-15T03:28:52;49.50;;;30.67;;
27977;SDS011;15314;49.248;6.968;2024-01-15T03:30:11;48.40;;;30.48;;
27977;SDS011;15314;49.248;6.968;2024-01-15T03:31:31;48.75;;;30.25;;
27977;SDS011;15314;49.248;6.968;2024-01-15T03:32:50;47.47;;;29.55;;
27977;SDS011;15314;49.248;6.968;2024-01-15T03:34:09;45.67;;;28.40;;
27977;SDS011;15314;49.248;6.968;2024-01-15T03:35:28;47.90;;;29.92;;
27977;SDS011;15314;49.248;6.968;2024-01-15T03:36:49;52.58;;;31.63;;
27977;SDS011;15314;49.248;6.968;2024-01-15T03:38:08;43.92;;;28.55;;
27977;SDS011;15314;49.248;6.968;2024-01-15T03:39:27;48.47;;;30.55;;
27977;SDS011;15314;49.248;6.968;2024-01-15T03:40:46;47.88;;;30.83;;
27977;SDS011;15314;49.248;6.968;2024-01-15T03:42:05;46.00;;;28.85;;
27977;SDS011;15314;49.248;6.968;2024-01-15T03:43:25;48.55;;;30.73;;
27977;SDS011;15314;49.248;6.968;2024-01-15T03:46:05;44.47;;;27.95;;
27977;SDS011;15314;49.248;6.968;2024-01-15T03:47:25;45.90;;;29.73;;
27977;SDS011;15314;49.248;6.968;2024-01-15T03:48:45;49.10;;;30.88;;
27977;SDS011;15314;49.248;6.968;2024-01-15T03:50:04;49.50;;;31.45;;
27977;SDS011;15314;49.248;6.968;2024-01-15T03:51:24;46.38;;;30.50;;
27977;SDS011;15314;49.248;6.968;2024-01-15T03:52:44;49.60;;;31.63;;
27977;SDS011;15314;49.248;6.968;2024-01-15T03:54:03;45.72;;;28.40;;
27977;SDS011;15314;49.248;6.968;2024-01-15T03:55:22;44.30;;;29.33;;
27977;SDS011;15314;49.248;6.968;2024-01-15T03:56:38;46.95;;;29.85;;
27977;SDS011;15314;49.248;6.968;2024-01-15T03:57:57;47.60;;;30.00;;
27977;SDS011;15314;49.248;6.968;2024-01-15T03:59:16;44.72;;;29.80;;
27977;SDS011;15314;49.248;6.968;2024-01-15T04:00:35;45.40;;;28.80;;
27977;SDS011;15314;49.248;6.968;2024-01-15T04:01:54;45.17;;;29.73;;
27977;SDS011;15314;49.248;6.968;2024-01-15T04:03:14;44.13;;;29.60;;
27977;SDS011;15314;49.248;6.968;2024-01-15T04:04:33;47.53;;;30.10;;
27977;SDS011;15314;49.248;6.968;2024-01-15T04:05:52;44.67;;;28.73;;
27977;SDS011;15314;49.248;6.968;2024-01-15T04:07:11;46.17;;;30.17;;
27977;SDS011;15314;49.248;6.968;2024-01-15T04:08:30;43.03;;;27.90;;
27977;SDS011;15314;49.248;6.968;2024-01-15T04:09:49;45.92;;;29.25;;
27977;SDS011;15314;49.248;6.968;2024-01-15T04:11:08;43.85;;;28.90;;
27977;SDS011;15314;49.248;6.968;2024-01-15T04:12:27;39.75;;;26.98;;
27977;SDS011;15314;49.248;6.968;2024-01-15T04:13:44;42.88;;;27.45;;
27977;SDS011;15314;49.248;6.968;2024-01-15T04:15:00;42.78;;;26.95;;
27977;SDS011;15314;49.248;6.968;2024-01-15T04:16:19;40.20;;;28.13;;
27977;SDS011;15314;49.248;6.968;2024-01-15T04:17:38;42.75;;;26.92;;
27977;SDS011;15314;49.248;6.968;2024-01-15T04:18:57;43.88;;;29.48;;
27977;SDS011;15314;49.248;6.968;2024-01-15T04:20:17;42.47;;;27.63;;
27977;SDS011;15314;49.248;6.968;2024-01-15T04:21:36;43.58;;;26.90;;
27977;SDS011;15314;49.248;6.968;2024-01-15T04:22:55;43.78;;;30.13;;
27977;SDS011;15314;49.248;6.968;2024-01-15T04:24:14;46.22;;;29.45;;
27977;SDS011;15314;49.248;6.968;2024-01-15T04:25:36;45.85;;;30.23;;
27977;SDS011;15314;49.248;6.968;2024-01-15T04:26:55;39.33;;;27.63;;
27977;SDS011;15314;49.248;6.968;2024-01-15T04:28:14;43.97;;;27.98;;
27977;SDS011;15314;49.248;6.968;2024-01-15T04:29:34;44.08;;;28.10;;
27977;SDS011;15314;49.248;6.968;2024-01-15T04:30:55;46.47;;;28.33;;
27977;SDS011;15314;49.248;6.968;2024-01-15T04:32:14;43.25;;;29.33;;
27977;SDS011;15314;49.248;6.968;2024-01-15T04:33:34;50.13;;;29.45;;
27977;SDS011;15314;49.248;6.968;2024-01-15T04:34:53;44.78;;;28.85;;
27977;SDS011;15314;49.248;6.968;2024-01-15T04:36:12;45.60;;;29.85;;
27977;SDS011;15314;49.248;6.968;2024-01-15T04:37:31;41.97;;;29.35;;
27977;SDS011;15314;49.248;6.968;2024-01-15T04:38:50;42.35;;;28.92;;
27977;SDS011;15314;49.248;6.968;2024-01-15T04:40:10;47.70;;;30.25;;
27977;SDS011;15314;49.248;6.968;2024-01-15T04:41:30;44.65;;;30.40;;
27977;SDS011;15314;49.248;6.968;2024-01-15T04:42:49;44.47;;;29.25;;
27977;SDS011;15314;49.248;6.968;2024-01-15T04:44:08;42.95;;;28.80;;
27977;SDS011;15314;49.248;6.968;2024-01-15T04:45:27;45.95;;;31.48;;
27977;SDS011;15314;49.248;6.968;2024-01-15T04:46:47;46.08;;;30.42;;
27977;SDS011;15314;49.248;6.968;2024-01-15T04:48:06;47.67;;;31.38;;
27977;SDS011;15314;49.248;6.968;2024-01-15T04:49:25;43.20;;;28.02;;
27977;SDS011;15314;49.248;6.968;2024-01-15T04:50:46;43.83;;;28.40;;
27977;SDS011;15314;49.248;6.968;2024-01-15T04:52:05;45.35;;;29.98;;
27977;SDS011;15314;49.248;6.968;2024-01-15T04:53:24;46.97;;;30.10;;
27977;SDS011;15314;49.248;6.968;2024-01-15T04:54:44;44.35;;;28.90;;
27977;SDS011;15314;49.248;6.968;2024-01-15T04:56:03;43.08;;;28.98;;
27977;SDS011;15314;49.248;6.968;2024-01-15T04:57:19;40.45;;;28.52;;
27977;SDS011;15314;49.248;6.968;2024-01-15T04:58:38;42.63;;;28.60;;
27977;SDS011;15314;49.248;6.968;2024-01-15T04:59:54;45.03;;;29.27;;
27977;SDS011;15314;49.248;6.968;2024-01-15T05:01:15;42.85;;;29.80;;
27977;SDS011;15314;49.248;6.968;2024-01-15T05:02:35;43.85;;;28.60;;
27977;SDS011;15314;49.248;6.968;2024-01-15T05:03:54;44.03;;;30.60;;
27977;SDS011;15314;49.248;6.968;2024-01-15T05:05:13;44.67;;;29.58;;
27977;SDS011;15314;49.248;6.968;2024-01-15T05:06:32;47.83;;;31.73;;
27977;SDS011;15314;49.248;6.968;2024-01-15T05:07:51;44.97;;;30.40;;
27977;SDS011;15314;49.248;6.968;2024-01-15T05:09:10;46.42;;;29.88;;
27977;SDS011;15314;49.248;6.968;2024-01-15T05:10:32;45.13;;;30.40;;
27977;SDS011;15314;49.248;6.968;2024-01-15T05:11:51;44.25;;;30.25;;
27977;SDS011;15314;49.248;6.968;2024-01-15T05:13:10;43.10;;;29.08;;
27977;SDS011;15314;49.248;6.968;2024-01-15T05:14:29;43.90;;;29.98;;
27977;SDS011;15314;49.248;6.968;2024-01-15T05:15:49;45.03;;;29.00;;
27977;SDS011;15314;49.248;6.968;2024-01-15T05:17:08;43.15;;;29.73;;
27977;SDS011;15314;49.248;6.968;2024-01-15T05:18:27;48.00;;;30.90;;
27977;SDS011;15314;49.248;6.968;2024-01-15T05:19:46;46.58;;;30.65;;
27977;SDS011;15314;49.248;6.968;2024-01-15T05:21:05;46.70;;;31.33;;
27977;SDS011;15314;49.248;6.968;2024-01-15T05:22:24;45.08;;;31.73;;
27977;SDS011;15314;49.248;6.968;2024-01-15T05:23:44;46.30;;;30.83;;
27977;SDS011;15314;49.248;6.968;2024-01-15T05:25:03;45.53;;;30.27;;
27977;SDS011;15314;49.248;6.968;2024-01-15T05:26:23;47.38;;;32.58;;
27977;SDS011;15314;49.248;6.968;2024-01-15T05:27:42;42.03;;;30.17;;
27977;SDS011;15314;49.248;6.968;2024-01-15T05:29:01;46.80;;;32.50;;
27977;SDS011;15314;49.248;6.968;2024-01-15T05:30:20;50.55;;;32.67;;
27977;SDS011;15314;49.248;6.968;2024-01-15T05:31:39;48.00;;;32.65;;
27977;SDS011;15314;49.248;6.968;2024-01-15T05:32:55;46.75;;;32.30;;
27977;SDS011;15314;49.248;6.968;2024-01-15T05:34:16;48.05;;;29.95;;
27977;SDS011;15314;49.248;6.968;2024-01-15T05:35:35;45.47;;;30.75;;
27977;SDS011;15314;49.248;6.968;2024-01-15T05:36:55;45.08;;;30.20;;
27977;SDS011;15314;49.248;6.968;2024-01-15T05:38:14;50.45;;;33.47;;
27977;SDS011;15314;49.248;6.968;2024-01-15T05:39:33;45.38;;;29.85;;
27977;SDS011;15314;49.248;6.968;2024-01-15T05:40:52;47.97;;;31.85;;
27977;SDS011;15314;49.248;6.968;2024-01-15T05:42:11;46.78;;;31.55;;
27977;SDS011;15314;49.248;6.968;2024-01-15T05:43:27;45.17;;;31.00;;
27977;SDS011;15314;49.248;6.968;2024-01-15T05:44:46;48.70;;;31.00;;
27977;SDS011;15314;49.248;6.968;2024-01-15T05:46:05;47.10;;;30.90;;
27977;SDS011;15314;49.248;6.968;2024-01-15T05:47:25;42.38;;;29.63;;
27977;SDS011;15314;49.248;6.968;2024-01-15T05:48:44;47.20;;;31.83;;
27977;SDS011;15314;49.248;6.968;2024-01-15T05:50:03;45.95;;;31.23;;
27977;SDS011;15314;49.248;6.968;2024-01-15T05:51:23;48.67;;;30.38;;
27977;SDS011;15314;49.248;6.968;2024-01-15T05:52:42;45.42;;;29.90;;
27977;SDS011;15314;49.248;6.968;2024-01-15T05:54:01;42.35;;;29.90;;
27977;SDS011;15314;49.248;6.968;2024-01-15T05:55:20;45.55;;;31.33;;
27977;SDS011;15314;49.248;6.968;2024-01-15T05:56:39;51.03;;;32.88;;
27977;SDS011;15314;49.248;6.968;2024-01-15T05:57:56;47.97;;;31.42;;
27977;SDS011;15314;49.248;6.968;2024-01-15T05:59:15;48.17;;;32.97;;
27977;SDS011;15314;49.248;6.968;2024-01-15T06:00:34;45.85;;;32.33;;
27977;SDS011;15314;49.248;6.968;2024-01-15T06:01:54;45.90;;;31.10;;
27977;SDS011;15314;49.248;6.968;2024-01-15T06:03:13;43.35;;;30.15;;
27977;SDS011;15314;49.248;6.968;2024-01-15T06:04:29;42.88;;;28.45;;
27977;SDS011;15314;49.248;6.968;2024-01-15T06:05:48;48.03;;;31.33;;
27977;SDS011;15314;49.248;6.968;2024-01-15T06:07:07;48.40;;;31.60;;
27977;SDS011;15314;49.248;6.968;2024-01-15T06:08:26;46.92;;;31.67;;
27977;SDS011;15314;49.248;6.968;2024-01-15T06:09:46;47.58;;;31.90;;
27977;SDS011;15314;49.248;6.968;2024-01-15T06:11:06;45.88;;;31.77;;
27977;SDS011;15314;49.248;6.968;2024-01-15T06:12:26;46.00;;;31.52;;
27977;SDS011;15314;49.248;6.968;2024-01-15T06:13:43;47.03;;;31.38;;
27977;SDS011;15314;49.248;6.968;2024-01-15T06:15:02;47.80;;;31.30;;
27977;SDS011;15314;49.248;6.968;2024-01-15T06:16:22;47.30;;;31.90;;
27977;SDS011;15314;49.248;6.968;2024-01-15T06:17:42;45.53;;;30.10;;
27977;SDS011;15314;49.248;6.968;2024-01-15T06:19:02;46.67;;;30.20;;
27977;SDS011;15314;49.248;6.968;2024-01-15T06:20:21;46.63;;;31.27;;
27977;SDS011;15314;49.248;6.968;2024-01-15T06:21:40;44.40;;;31.77;;
27977;SDS011;15314;49.248;6.968;2024-01-15T06:22:56;47.50;;;31.13;;
27977;SDS011;15314;49.248;6.968;2024-01-15T06:24:15;45.55;;;32.25;;
27977;SDS011;15314;49.248;6.968;2024-01-15T06:25:33;47.30;;;30.90;;
27977;SDS011;15314;49.248;6.968;2024-01-15T06:26:52;45.83;;;30.52;;
27977;SDS011;15314;49.248;6.968;2024-01-15T06:28:11;50.55;;;33.08;;
27977;SDS011;15314;49.248;6.968;2024-01-15T06:29:27;50.13;;;33.65;;
27977;SDS011;15314;49.248;6.968;2024-01-15T06:30:48;42.45;;;30.33;;
27977;SDS011;15314;49.248;6.968;2024-01-15T06:32:07;50.72;;;33.55;;
27977;SDS011;15314;49.248;6.968;2024-01-15T06:33:26;48.10;;;32.95;;
27977;SDS011;15314;49.248;6.968;2024-01-15T06:34:45;47.97;;;31.55;;
27977;SDS011;15314;49.248;6.968;2024-01-15T06:36:05;50.13;;;31.92;;
27977;SDS011;15314;49.248;6.968;2024-01-15T06:37:24;45.85;;;30.83;;
27977;SDS011;15314;49.248;6.968;2024-01-15T06:38:43;46.17;;;29.85;;
27977;SDS011;15314;49.248;6.968;2024-01-15T06:40:03;45.35;;;31.35;;
27977;SDS011;15314;49.248;6.968;2024-01-15T06:41:24;50.25;;;32.92;;
27977;SDS011;15314;49.248;6.968;2024-01-15T06:42:44;44.15;;;30.70;;
27977;SDS011;15314;49.248;6.968;2024-01-15T06:44:03;47.72;;;31.40;;
27977;SDS011;15314;49.248;6.968;2024-01-15T06:45:20;44.50;;;31.08;;
27977;SDS011;15314;49.248;6.968;2024-01-15T06:46:42;48.55;;;32.03;;
27977;SDS011;15314;49.248;6.968;2024-01-15T06:48:03;46.65;;;32.08;;
27977;SDS011;15314;49.248;6.968;2024-01-15T06:49:22;45.78;;;30.38;;
27977;SDS011;15314;49.248;6.968;2024-01-15T06:50:42;44.15;;;30.13;;
27977;SDS011;15314;49.248;6.968;2024-01-15T06:52:01;46.97;;;32.20;;
27977;SDS011;15314;49.248;6.968;2024-01-15T06:53:21;43.58;;;31.30;;
27977;SDS011;15314;49.248;6.968;2024-01-15T06:54:37;53.17;;;33.70;;
27977;SDS011;15314;49.248;6.968;2024-01-15T06:55:56;48.85;;;32.85;;
27977;SDS011;15314;49.248;6.968;2024-01-15T06:57:15;48.60;;;33.85;;
27977;SDS011;15314;49.248;6.968;2024-01-15T06:58:34;51.38;;;33.00;;
27977;SDS011;15314;49.248;6.968;2024-01-15T06:59:53;50.50;;;33.55;;
27977;SDS011;15314;49.248;6.968;2024-01-15T07:01:12;50.15;;;33.10;;
27977;SDS011;15314;49.248;6.968;2024-01-15T07:02:31;51.35;;;32.80;;
27977;SDS011;15314;49.248;6.968;2024-01-15T07:03:50;45.10;;;32.17;;
27977;SDS011;15314;49.248;6.968;2024-01-15T07:05:06;48.83;;;32.78;;
27977;SDS011;15314;49.248;6.968;2024-01-15T07:06:26;57.97;;;33.90;;
27977;SDS011;15314;49.248;6.968;2024-01-15T07:07:45;48.35;;;31.75;;
27977;SDS011;15314;49.248;6.968;2024-01-15T07:09:04;50.05;;;31.83;;
27977;SDS011;15314;49.248;6.968;2024-01-15T07:10:24;47.63;;;32.83;;
27977;SDS011;15314;49.248;6.968;2024-01-15T07:11:45;51.10;;;33.22;;
27977;SDS011;15314;49.248;6.968;2024-01-15T07:13:05;49.83;;;32.92;;
27977;SDS011;15314;49.248;6.968;2024-01-15T07:14:24;47.10;;;31.95;;
27977;SDS011;15314;49.248;6.968;2024-01-15T07:15:43;47.97;;;32.90;;
27977;SDS011;15314;49.248;6.968;2024-01-15T07:17:02;49.42;;;31.70;;
27977;SDS011;15314;49.248;6.968;2024-01-15T07:18:21;49.28;;;32.17;;
27977;SDS011;15314;49.248;6.968;2024-01-15T07:19:41;48.95;;;32.80;;
27977;SDS011;15314;49.248;6.968;2024-01-15T07:21:01;50.58;;;31.42;;
27977;SDS011;15314;49.248;6.968;2024-01-15T07:22:21;54.58;;;35.33;;
27977;SDS011;15314;49.248;6.968;2024-01-15T07:23:40;52.65;;;34.10;;
27977;SDS011;15314;49.248;6.968;2024-01-15T07:25:01;50.60;;;33.72;;
27977;SDS011;15314;49.248;6.968;2024-01-15T07:26:20;51.88;;;33.65;;
27977;SDS011;15314;49.248;6.968;2024-01-15T07:27:36;52.33;;;34.42;;
27977;SDS011;15314;49.248;6.968;2024-01-15T07:28:56;47.13;;;32.63;;
27977;SDS011;15314;49.248;6.968;2024-01-15T07:30:15;52.40;;;34.50;;
27977;SDS011;15314;49.248;6.968;2024-01-15T07:31:35;51.67;;;32.78;;
27977;SDS011;15314;49.248;6.968;2024-01-15T07:32:51;52.83;;;33.22;;
27977;SDS011;15314;49.248;6.968;2024-01-15T07:34:08;48.90;;;34.47;;
27977;SDS011;15314;49.248;6.968;2024-01-15T07:35:27;55.25;;;33.88;;
27977;SDS011;15314;49.248;6.968;2024-01-15T07:36:46;51.80;;;34.53;;
27977;SDS011;15314;49.248;6.968;2024-01-15T07:38:05;54.78;;;36.30;;
27977;SDS011;15314;49.248;6.968;2024-01-15T07:39:24;52.97;;;35.17;;
27977;SDS011;15314;49.248;6.968;2024-01-15T07:40:43;53.13;;;34.70;;
27977;SDS011;15314;49.248;6.968;2024-01-15T07:42:03;50.97;;;33.72;;
27977;SDS011;15314;49.248;6.968;2024-01-15T07:43:23;53.90;;;35.10;;
27977;SDS011;15314;49.248;6.968;2024-01-15T07:44:42;58.67;;;36.63;;